createdAt,value
2018-12-24T00:01:49.672Z,5.20
2018-12-24T00:04:20.376Z,5.20
2018-12-24T00:06:51.346Z,5.20
2018-12-24T00:10:08.899Z,5.20
2018-12-24T00:12:53.286Z,5.10
2018-12-24T00:15:24.281Z,5.20
2018-12-24T00:18:25.437Z,5.00
2018-12-24T00:20:56.463Z,5.00
2018-12-24T00:23:28.626Z,5.00
2018-12-24T00:26:01.414Z,5.00
2018-12-24T00:28:31.980Z,4.90
2018-12-24T00:31:02.532Z,4.80
2018-12-24T00:33:34.480Z,4.80
2018-12-24T00:36:32.408Z,4.80
2018-12-24T00:39:15.778Z,4.80
2018-12-24T00:42:43.380Z,4.80
2018-12-24T00:45:25.482Z,4.70
2018-12-24T00:48:16.778Z,4.70
2018-12-24T00:51:19.618Z,4.70
2018-12-24T00:54:19.709Z,4.70
2018-12-24T00:56:50.573Z,4.70
2018-12-24T00:59:53.845Z,4.60
2018-12-24T01:03:20.991Z,4.70
2018-12-24T01:05:53.878Z,4.60
2018-12-24T01:09:18.193Z,4.60
2018-12-24T01:11:48.503Z,4.60
2018-12-24T01:14:18.982Z,4.60
2018-12-24T01:16:49.062Z,4.70
2018-12-24T01:19:19.155Z,4.60
2018-12-24T01:21:49.407Z,4.60
2018-12-24T01:24:19.465Z,4.50
2018-12-24T01:26:49.518Z,4.40
2018-12-24T01:29:19.497Z,4.50
2018-12-24T01:31:49.463Z,4.40
2018-12-24T01:34:19.423Z,4.40
2018-12-24T01:36:49.451Z,4.40
2018-12-24T01:39:19.438Z,4.30
2018-12-24T01:41:50.494Z,4.20
2018-12-24T01:44:22.395Z,4.30
2018-12-24T01:46:56.487Z,4.20
2018-12-24T01:49:33.527Z,4.10
2018-12-24T01:52:06.401Z,4.00
2018-12-24T01:54:36.665Z,3.90
2018-12-24T01:57:06.755Z,3.90
2018-12-24T01:59:36.925Z,3.90
2018-12-24T02:02:08.600Z,3.80
2018-12-24T02:04:38.980Z,3.70
2018-12-24T02:07:09.356Z,3.70
2018-12-24T02:09:39.964Z,3.70
2018-12-24T02:12:11.741Z,3.60
2018-12-24T02:14:42.193Z,3.60
2018-12-24T02:17:12.459Z,3.50
2018-12-24T02:19:42.944Z,3.40
2018-12-24T02:22:13.276Z,3.50
2018-12-24T02:24:43.604Z,3.50
2018-12-24T02:27:13.718Z,3.50
2018-12-24T02:29:44.490Z,3.50
2018-12-24T02:32:15.349Z,3.40
2018-12-24T02:34:46.208Z,3.40
2018-12-24T02:37:16.374Z,3.40
2018-12-24T02:39:47.307Z,3.40
2018-12-24T02:42:17.345Z,3.40
2018-12-24T02:44:47.251Z,3.40
2018-12-24T02:47:17.331Z,3.40
2018-12-24T02:49:47.561Z,3.30
2018-12-24T02:52:18.117Z,3.40
2018-12-24T02:54:48.757Z,3.40
2018-12-24T02:57:18.779Z,3.30
2018-12-24T02:59:48.840Z,3.30
2018-12-24T03:02:18.804Z,3.20
2018-12-24T03:04:49.314Z,3.10
2018-12-24T03:07:19.395Z,3.10
2018-12-24T03:09:49.463Z,3.20
2018-12-24T03:12:19.399Z,3.10
2018-12-24T03:14:49.543Z,3.10
2018-12-24T03:17:19.452Z,3.00
2018-12-24T03:19:49.363Z,3.10
2018-12-24T03:22:19.266Z,3.10
2018-12-24T03:24:49.334Z,3.00
2018-12-24T03:27:19.438Z,3.10
2018-12-24T03:29:49.439Z,3.00
2018-12-24T03:32:19.385Z,3.00
2018-12-24T03:34:49.392Z,3.10
2018-12-24T03:38:13.220Z,2.90
2018-12-24T03:40:43.954Z,2.90
2018-12-24T03:43:17.334Z,2.80
2018-12-24T03:46:03.512Z,2.70
2018-12-24T03:48:35.804Z,2.70
2018-12-24T03:51:11.397Z,2.70
2018-12-24T03:53:43.968Z,2.70
2018-12-24T03:56:13.945Z,2.70
2018-12-24T03:58:43.910Z,2.70
2018-12-24T04:01:13.827Z,2.70
2018-12-24T04:03:43.787Z,2.70
2018-12-24T04:06:13.695Z,2.60
2018-12-24T04:08:43.859Z,2.60
2018-12-24T04:11:13.763Z,2.60
2018-12-24T04:13:43.648Z,2.50
2018-12-24T04:16:13.625Z,2.40
2018-12-24T04:18:43.672Z,2.50
2018-12-24T04:21:13.575Z,2.50
2018-12-24T04:23:43.495Z,2.60
2018-12-24T04:26:13.523Z,2.60
2018-12-24T04:28:43.565Z,2.60
2018-12-24T04:31:13.624Z,2.60
2018-12-24T04:33:43.710Z,2.50
2018-12-24T04:36:13.794Z,2.40
2018-12-24T04:38:43.868Z,2.30
2018-12-24T04:41:13.906Z,2.30
2018-12-24T04:43:43.911Z,2.20
2018-12-24T04:46:13.896Z,2.10
2018-12-24T04:48:43.758Z,2.10
2018-12-24T04:51:13.731Z,2.10
2018-12-24T04:53:43.642Z,2.10
2018-12-24T04:56:13.562Z,2.20
2018-12-24T04:58:43.491Z,2.10
2018-12-24T05:01:13.385Z,2.20
2018-12-24T05:03:43.277Z,2.20
2018-12-24T05:06:13.175Z,2.20
2018-12-24T05:08:43.105Z,2.20
2018-12-24T05:11:13.044Z,2.10
2018-12-24T05:13:42.950Z,2.00
2018-12-24T05:16:12.856Z,1.90
2018-12-24T05:18:42.769Z,1.90
2018-12-24T05:21:12.694Z,1.90
2018-12-24T05:23:42.620Z,1.90
2018-12-24T05:26:12.616Z,1.80
2018-12-24T05:28:42.514Z,1.90
2018-12-24T05:31:12.494Z,1.80
2018-12-24T05:33:42.649Z,1.70
2018-12-24T05:36:12.851Z,1.60
2018-12-24T05:38:42.887Z,1.60
2018-12-24T05:41:12.830Z,1.60
2018-12-24T05:43:49.352Z,1.60
2018-12-24T05:46:14.619Z,1.50
2018-12-24T05:48:44.595Z,1.50
2018-12-24T05:51:14.681Z,1.60
2018-12-24T05:53:44.747Z,1.60
2018-12-24T05:56:14.885Z,1.80
2018-12-24T05:58:44.857Z,1.80
2018-12-24T06:01:14.769Z,1.80
2018-12-24T06:03:44.876Z,1.80
2018-12-24T06:06:14.937Z,1.80
2018-12-24T06:08:45.035Z,1.90
2018-12-24T06:11:15.268Z,2.00
2018-12-24T06:13:45.417Z,2.00
2018-12-24T06:16:15.429Z,2.20
2018-12-24T06:18:45.438Z,2.20
2018-12-24T06:21:15.379Z,2.20
2018-12-24T06:23:45.458Z,2.30
2018-12-24T06:26:15.356Z,2.30
2018-12-24T06:28:45.270Z,2.40
2018-12-24T06:31:15.299Z,2.40
2018-12-24T06:33:45.208Z,2.40
2018-12-24T06:36:15.274Z,2.30
2018-12-24T06:38:45.266Z,2.30
2018-12-24T06:41:15.389Z,2.30
2018-12-24T06:43:45.603Z,2.30
2018-12-24T06:46:15.730Z,2.30
2018-12-24T06:48:45.764Z,2.20
2018-12-24T06:51:15.924Z,2.20
2018-12-24T06:53:46.038Z,2.20
2018-12-24T06:56:15.958Z,2.20
2018-12-24T06:58:46.144Z,2.10
2018-12-24T07:01:16.201Z,2.20
2018-12-24T07:03:48.562Z,2.30
2018-12-24T07:06:18.641Z,2.30
2018-12-24T07:08:48.893Z,2.20
2018-12-24T07:11:19.042Z,2.20
2018-12-24T07:13:49.298Z,2.20
2018-12-24T07:16:19.423Z,2.20
2018-12-24T07:18:49.564Z,2.20
2018-12-24T07:21:19.932Z,2.30
2018-12-24T07:23:51.787Z,2.40
2018-12-24T07:26:21.758Z,2.30
2018-12-24T07:28:59.032Z,2.40
2018-12-24T07:31:23.787Z,2.30
2018-12-24T07:33:53.996Z,2.30
2018-12-24T07:36:24.008Z,2.30
2018-12-24T07:38:54.182Z,2.40
2018-12-24T07:41:24.294Z,2.30
2018-12-24T07:43:54.264Z,2.50
2018-12-24T07:46:24.446Z,2.50
2018-12-24T07:48:54.585Z,2.60
2018-12-24T07:51:24.650Z,2.50
2018-12-24T07:53:54.589Z,2.50
2018-12-24T07:56:24.578Z,2.50
2018-12-24T07:58:54.548Z,2.40
2018-12-24T08:01:24.512Z,2.20
2018-12-24T08:03:54.497Z,2.20
2018-12-24T08:06:24.389Z,2.10
2018-12-24T08:08:54.283Z,2.00
2018-12-24T08:11:24.468Z,1.90
2018-12-24T08:13:54.384Z,1.90
2018-12-24T08:16:24.699Z,1.90
2018-12-24T08:18:54.614Z,1.80
2018-12-24T08:21:24.878Z,1.80
2018-12-24T08:23:54.765Z,1.80
2018-12-24T08:26:24.664Z,1.70
2018-12-24T08:28:54.670Z,1.70
2018-12-24T08:31:24.671Z,1.70
2018-12-24T08:33:54.751Z,1.70
2018-12-24T08:36:24.743Z,1.60
2018-12-24T08:38:54.824Z,1.60
2018-12-24T08:41:24.710Z,1.60
2018-12-24T08:43:55.768Z,1.60
2018-12-24T08:46:27.368Z,1.60
2018-12-24T08:48:58.292Z,1.60
2018-12-24T08:51:28.210Z,1.60
2018-12-24T08:53:58.155Z,1.60
2018-12-24T08:56:29.207Z,1.60
2018-12-24T08:58:59.359Z,1.60
2018-12-24T09:01:29.250Z,1.60
2018-12-24T09:03:59.139Z,1.60
2018-12-24T09:06:29.119Z,1.60
2018-12-24T09:08:58.993Z,1.60
2018-12-24T09:11:29.060Z,1.60
2018-12-24T09:13:59.221Z,1.60
2018-12-24T09:16:29.268Z,1.60
2018-12-24T09:18:59.139Z,1.60
2018-12-24T09:21:29.428Z,1.60
2018-12-24T09:23:59.367Z,1.70
2018-12-24T09:26:29.390Z,1.70
2018-12-24T09:28:59.535Z,1.70
2018-12-24T09:31:29.527Z,1.70
2018-12-24T09:33:59.488Z,1.80
2018-12-24T09:36:29.437Z,1.80
2018-12-24T09:38:59.417Z,1.90
2018-12-24T09:41:29.318Z,1.90
2018-12-24T09:43:59.279Z,1.90
2018-12-24T09:46:29.291Z,2.00
2018-12-24T09:48:59.334Z,2.00
2018-12-24T09:51:29.287Z,2.00
2018-12-24T09:53:59.216Z,2.10
2018-12-24T09:56:29.204Z,2.10
2018-12-24T09:58:59.143Z,2.20
2018-12-24T10:01:29.100Z,2.20
2018-12-24T10:04:09.822Z,2.30
2018-12-24T10:06:42.453Z,2.30
2018-12-24T10:09:14.566Z,2.40
2018-12-24T10:11:44.498Z,2.40
2018-12-24T10:14:14.447Z,2.50
2018-12-24T10:16:44.368Z,2.50
2018-12-24T10:19:14.279Z,2.50
2018-12-24T10:21:45.517Z,2.50
2018-12-24T10:24:15.482Z,2.60
2018-12-24T10:26:45.453Z,2.60
2018-12-24T10:29:15.475Z,2.60
2018-12-24T10:31:45.467Z,2.60
2018-12-24T10:34:19.789Z,2.60
2018-12-24T10:36:49.824Z,2.60
2018-12-24T10:39:21.675Z,2.70
2018-12-24T10:41:51.978Z,2.70
2018-12-24T10:44:22.198Z,2.80
2018-12-24T10:46:55.747Z,2.90
2018-12-24T10:49:26.202Z,2.90
2018-12-24T10:51:56.368Z,2.90
2018-12-24T10:54:26.526Z,3.00
2018-12-24T10:56:56.594Z,3.10
2018-12-24T10:59:27.042Z,3.30
2018-12-24T11:01:59.538Z,3.40
2018-12-24T11:04:31.130Z,3.50
2018-12-24T11:07:08.275Z,3.50
2018-12-24T11:09:39.646Z,3.60
2018-12-24T11:12:11.072Z,3.60
2018-12-24T11:14:42.840Z,3.70
2018-12-24T11:17:16.605Z,3.80
2018-12-24T11:19:46.714Z,3.90
2018-12-24T11:22:16.650Z,3.90
2018-12-24T11:24:46.601Z,3.90
2018-12-24T11:27:18.375Z,3.80
2018-12-24T11:29:49.978Z,3.70
2018-12-24T11:32:20.790Z,3.80
2018-12-24T11:34:50.974Z,3.80
2018-12-24T11:37:21.112Z,3.80
2018-12-24T11:39:51.256Z,3.80
2018-12-24T11:42:33.243Z,3.70
2018-12-24T11:45:12.188Z,3.80
2018-12-24T11:47:42.416Z,3.80
2018-12-24T11:50:16.236Z,3.90
2018-12-24T11:52:46.654Z,4.00
2018-12-24T11:55:16.921Z,4.20
2018-12-24T11:57:47.711Z,4.10
2018-12-24T12:00:18.013Z,4.00
2018-12-24T12:02:52.532Z,4.00
2018-12-24T12:05:34.566Z,3.90
2018-12-24T12:08:04.879Z,4.00
2018-12-24T12:10:34.925Z,4.20
2018-12-24T12:13:05.124Z,4.10
2018-12-24T12:15:42.536Z,4.10
2018-12-24T12:18:11.079Z,4.10
2018-12-24T12:25:36.452Z,4.10
2018-12-24T12:28:25.889Z,4.00
2018-12-24T12:30:55.857Z,3.80
2018-12-24T12:33:25.830Z,3.70
2018-12-24T12:35:55.942Z,3.70
2018-12-24T12:38:29.889Z,3.80
2018-12-24T12:40:59.363Z,3.80
2018-12-24T12:47:00.445Z,3.90
2018-12-24T12:49:39.356Z,4.10
2018-12-24T12:52:09.696Z,4.20
2018-12-24T12:54:40.152Z,4.40
2018-12-24T12:57:15.673Z,4.40
2018-12-24T12:59:45.792Z,4.40
2018-12-24T13:02:15.877Z,4.30
2018-12-24T13:04:45.925Z,4.30
2018-12-24T13:07:16.047Z,4.30
2018-12-24T13:09:46.009Z,4.50
2018-12-24T13:12:16.004Z,4.50
2018-12-24T13:14:46.113Z,4.50
2018-12-24T13:17:16.449Z,4.60
2018-12-24T13:19:46.695Z,4.60
2018-12-24T13:22:17.629Z,4.50
2018-12-24T13:24:47.718Z,4.60
2018-12-24T13:27:17.800Z,4.60
2018-12-24T13:29:47.909Z,4.70
2018-12-24T13:32:17.954Z,4.60
2018-12-24T13:34:48.037Z,4.60
2018-12-24T13:37:18.982Z,4.60
2018-12-24T13:39:49.247Z,4.70
2018-12-24T13:42:19.407Z,4.70
2018-12-24T13:44:49.653Z,4.60
2018-12-24T13:47:20.293Z,4.50
2018-12-24T13:49:52.016Z,4.60
2018-12-24T13:52:22.169Z,4.40
2018-12-24T13:54:52.358Z,4.40
2018-12-24T13:57:22.629Z,4.30
2018-12-24T13:59:52.709Z,4.40
2018-12-24T14:02:22.643Z,4.50
2018-12-24T14:04:55.039Z,4.50
2018-12-24T14:07:25.130Z,4.40
2018-12-24T14:09:58.062Z,4.50
2018-12-24T14:12:28.041Z,4.40
2018-12-24T14:14:58.120Z,4.40
2018-12-24T14:17:28.080Z,4.30
2018-12-24T14:20:01.313Z,4.30
2018-12-24T14:22:31.468Z,4.20
2018-12-24T14:25:01.625Z,4.20
2018-12-24T14:27:31.714Z,4.10
2018-12-24T14:30:01.779Z,4.20
2018-12-24T14:32:32.156Z,4.30
2018-12-24T14:35:02.121Z,4.10
2018-12-24T14:37:32.040Z,4.10
2018-12-24T14:40:05.175Z,4.20
2018-12-24T14:42:35.512Z,4.20
2018-12-24T14:45:06.658Z,4.20
2018-12-24T14:47:36.737Z,4.30
2018-12-24T14:50:08.314Z,4.30
2018-12-24T14:52:41.146Z,4.40
2018-12-24T14:55:11.082Z,4.30
2018-12-24T14:57:41.122Z,4.30
2018-12-24T15:00:11.486Z,4.30
2018-12-24T15:02:41.419Z,4.20
2018-12-24T15:05:11.538Z,4.20
2018-12-24T15:07:41.419Z,4.20
2018-12-24T15:10:11.308Z,4.20
2018-12-24T15:12:41.294Z,4.40
2018-12-24T15:15:11.308Z,4.40
2018-12-24T15:17:41.386Z,4.40
2018-12-24T15:20:11.334Z,4.40
2018-12-24T15:22:41.297Z,4.50
2018-12-24T15:25:11.242Z,4.50
2018-12-24T15:27:41.287Z,4.60
2018-12-24T15:30:11.514Z,4.60
2018-12-24T15:32:41.486Z,4.50
2018-12-24T15:35:11.663Z,4.50
2018-12-24T15:37:42.554Z,4.40
2018-12-24T15:40:13.926Z,4.40
2018-12-24T15:42:43.874Z,4.40
2018-12-24T15:45:13.963Z,4.50
2018-12-24T15:47:43.980Z,4.50
2018-12-24T15:50:13.947Z,4.50
2018-12-24T15:52:43.889Z,4.40
2018-12-24T15:55:14.029Z,4.30
2018-12-24T15:57:43.995Z,4.30
2018-12-24T16:00:14.323Z,4.40
2018-12-24T16:02:44.462Z,4.40
2018-12-24T16:05:14.566Z,4.20
2018-12-24T16:07:44.527Z,4.30
2018-12-24T16:10:14.582Z,4.20
2018-12-24T16:12:44.739Z,4.20
2018-12-24T16:15:14.828Z,4.10
2018-12-24T16:17:44.768Z,3.90
2018-12-24T16:20:16.408Z,3.90
2018-12-24T16:22:49.493Z,3.80
2018-12-24T16:25:19.538Z,3.90
2018-12-24T16:27:49.575Z,3.80
2018-12-24T16:30:19.554Z,3.80
2018-12-24T16:32:50.575Z,3.80
2018-12-24T16:35:20.472Z,3.80
2018-12-24T16:37:50.490Z,3.90
2018-12-24T16:40:20.503Z,3.90
2018-12-24T16:42:50.608Z,3.90
2018-12-24T16:45:20.542Z,3.90
2018-12-24T16:47:50.552Z,4.00
2018-12-24T16:50:20.698Z,3.90
2018-12-24T16:52:50.840Z,4.00
2018-12-24T16:55:20.938Z,3.90
2018-12-24T16:57:51.930Z,3.90
2018-12-24T17:00:22.278Z,3.90
2018-12-24T17:02:52.312Z,3.90
2018-12-24T17:05:22.544Z,3.90
2018-12-24T17:07:52.592Z,3.90
2018-12-24T17:10:22.556Z,3.90
2018-12-24T17:12:52.591Z,3.90
2018-12-24T17:15:22.640Z,3.90
2018-12-24T17:17:52.549Z,3.90
2018-12-24T17:20:22.558Z,3.90
2018-12-24T17:22:54.950Z,3.90
2018-12-24T17:25:25.104Z,3.90
2018-12-24T17:27:55.952Z,3.90
2018-12-24T17:30:26.259Z,3.90
2018-12-24T17:32:56.606Z,3.90
2018-12-24T17:35:26.899Z,4.00
2018-12-24T17:37:57.098Z,4.00
2018-12-24T17:40:27.480Z,4.00
2018-12-24T17:42:57.675Z,4.00
2018-12-24T17:45:27.959Z,3.90
2018-12-24T17:47:57.860Z,4.00
2018-12-24T17:50:29.226Z,4.00
2018-12-24T17:52:59.415Z,4.00
2018-12-24T17:55:29.957Z,4.00
2018-12-24T17:58:00.315Z,4.00
2018-12-24T18:00:30.615Z,4.00
2018-12-24T18:03:01.021Z,4.00
2018-12-24T18:05:32.393Z,4.00
2018-12-24T18:08:02.804Z,4.00
2018-12-24T18:10:33.153Z,4.00
2018-12-24T18:13:04.553Z,4.00
2018-12-24T18:15:34.865Z,4.00
2018-12-24T18:18:05.161Z,3.90
2018-12-24T18:20:35.665Z,3.90
2018-12-24T18:23:06.097Z,3.90
2018-12-24T18:25:38.093Z,3.90
2018-12-24T18:28:08.463Z,3.90
2018-12-24T18:30:41.343Z,3.90
2018-12-24T18:33:11.625Z,3.90
2018-12-24T18:35:44.861Z,4.00
2018-12-24T18:38:14.930Z,4.00
2018-12-24T18:40:45.014Z,4.00
2018-12-24T18:43:15.083Z,4.00
2018-12-24T18:45:45.195Z,3.90
2018-12-24T18:48:15.333Z,3.90
2018-12-24T18:50:45.324Z,3.90
2018-12-24T18:53:16.351Z,4.00
2018-12-24T18:55:46.664Z,3.90
2018-12-24T18:58:16.915Z,3.90
2018-12-24T19:00:47.056Z,3.90
2018-12-24T19:03:17.180Z,4.00
2018-12-24T19:06:06.636Z,4.00
2018-12-24T19:08:36.724Z,4.00
2018-12-24T19:11:08.924Z,4.10
2018-12-24T19:13:39.116Z,4.00
2018-12-24T19:16:11.573Z,4.00
2018-12-24T19:18:41.889Z,4.00
2018-12-24T19:21:12.177Z,4.10
2018-12-24T19:23:42.508Z,4.10
2018-12-24T19:26:12.588Z,4.10
2018-12-24T19:28:42.799Z,4.10
2018-12-24T19:31:13.038Z,4.10
2018-12-24T19:33:45.145Z,4.10
2018-12-24T19:36:16.874Z,4.10
2018-12-24T19:38:47.222Z,4.00
2018-12-24T19:41:17.637Z,4.00
2018-12-24T19:43:48.076Z,4.00
2018-12-24T19:46:18.640Z,4.00
2018-12-24T19:48:50.173Z,4.00
2018-12-24T19:51:21.126Z,4.00
2018-12-24T19:53:54.043Z,4.00
2018-12-24T19:56:24.417Z,4.00
2018-12-24T19:58:54.906Z,4.00
2018-12-24T20:01:25.616Z,4.00
2018-12-24T20:03:55.855Z,4.00
2018-12-24T20:06:25.975Z,4.00
2018-12-24T20:08:59.010Z,4.10
2018-12-24T20:11:29.015Z,4.20
2018-12-24T20:14:01.911Z,4.30
2018-12-24T20:16:31.850Z,4.40
2018-12-24T20:19:01.873Z,4.40
2018-12-24T20:21:31.959Z,4.50
2018-12-24T20:24:02.036Z,4.50
2018-12-24T20:26:32.146Z,4.50
2018-12-24T20:29:02.170Z,4.60
2018-12-24T20:31:32.227Z,4.50
2018-12-24T20:34:02.286Z,4.70
2018-12-24T20:36:32.400Z,4.70
2018-12-24T20:39:08.457Z,4.70
2018-12-24T20:41:38.390Z,4.80
2018-12-24T20:44:08.440Z,4.90
2018-12-24T20:46:38.576Z,4.90
2018-12-24T20:49:08.510Z,5.00
2018-12-24T20:51:38.696Z,4.90
2018-12-24T20:54:08.831Z,4.90
2018-12-24T20:56:38.968Z,4.90
2018-12-24T20:59:11.768Z,4.90
2018-12-24T21:01:41.707Z,5.00
2018-12-24T21:04:11.814Z,5.00
2018-12-24T21:06:41.907Z,5.10
2018-12-24T21:09:12.008Z,5.10
2018-12-24T21:11:42.034Z,5.00
2018-12-24T21:14:12.084Z,5.00
2018-12-24T21:16:42.279Z,5.00
2018-12-24T21:19:12.370Z,5.00
2018-12-24T21:21:42.392Z,4.90
2018-12-24T21:24:12.491Z,4.90
2018-12-24T21:26:42.408Z,4.90
2018-12-24T21:29:12.412Z,4.90
2018-12-24T21:31:42.531Z,4.90
2018-12-24T21:34:12.551Z,4.90
2018-12-24T21:36:42.611Z,4.90
2018-12-24T21:39:13.083Z,4.90
2018-12-24T21:41:44.228Z,4.90
2018-12-24T21:44:16.347Z,4.90
2018-12-24T21:46:46.680Z,5.00
2018-12-24T21:49:16.840Z,5.00
2018-12-24T21:51:46.981Z,5.00
2018-12-24T21:54:17.121Z,5.10
2018-12-24T21:56:47.505Z,5.20
2018-12-24T21:59:17.588Z,5.20
2018-12-24T22:01:47.767Z,5.30
2018-12-24T22:04:17.864Z,5.30
2018-12-24T22:06:48.192Z,5.30
2018-12-24T22:09:18.192Z,5.40
2018-12-24T22:12:00.603Z,5.40
2018-12-24T22:14:30.855Z,5.40
2018-12-24T22:17:00.979Z,5.40
2018-12-24T22:19:31.273Z,5.50
2018-12-24T22:22:01.321Z,5.40
2018-12-24T22:24:31.352Z,5.50
2018-12-24T22:27:01.375Z,5.50
2018-12-24T22:29:31.365Z,5.50
2018-12-24T22:32:01.673Z,5.50
2018-12-24T22:34:31.667Z,5.50
2018-12-24T22:37:01.715Z,5.50
2018-12-24T22:39:31.832Z,5.40
2018-12-24T22:42:01.792Z,5.40
2018-12-24T22:44:31.934Z,5.40
2018-12-24T22:47:02.083Z,5.40
2018-12-24T22:49:37.837Z,5.50
2018-12-24T22:52:07.829Z,5.40
2018-12-24T22:54:37.862Z,5.40
2018-12-24T22:57:11.018Z,5.40
2018-12-24T22:59:41.212Z,5.50
2018-12-24T23:02:14.068Z,5.50
2018-12-24T23:04:46.369Z,5.50
2018-12-24T23:07:18.666Z,5.60
2018-12-24T23:09:48.632Z,5.60
2018-12-24T23:12:19.788Z,5.60
2018-12-24T23:14:49.984Z,5.60
2018-12-24T23:17:20.096Z,5.60
2018-12-24T23:19:51.650Z,5.60
2018-12-24T23:22:24.952Z,5.60
2018-12-24T23:24:56.503Z,5.70
2018-12-24T23:27:27.866Z,5.70
2018-12-24T23:29:57.898Z,5.60
2018-12-24T23:32:30.885Z,5.60
2018-12-24T23:35:00.879Z,5.60
2018-12-24T23:37:30.856Z,5.70
2018-12-24T23:40:05.549Z,5.70
2018-12-24T23:42:37.557Z,5.70
2018-12-24T23:45:07.838Z,5.60
2018-12-24T23:47:40.947Z,5.60
2018-12-24T23:50:10.829Z,5.60
2018-12-24T23:52:43.198Z,5.60
2018-12-24T23:55:13.364Z,5.60
2018-12-24T23:57:43.337Z,5.70
